<?xml version="1.0" encoding="utf-8"?>
<gpx xmlns:xsi="http://www.w3.org/2001/XMLSchema-instance" xmlns:xsd="http://www.w3.org/2001/XMLSchema" version="1.1" creator="Shapelink.com" xmlns="http://www.topografix.com/GPX/1/1" xmlns:gpxtpx="http://www.garmin.com/xmlschemas/TrackPointExtension/v1">
  <metadata>
    <name>Övrigt 2.48 km, 2020-06-09</name>
    <desc></desc>
    <author><name>Marian Moron</name></author> 
    <time>2020-06-09T19:42:23Z</time>
  </metadata>
  <trk>
    <name>Övrigt 2.48 km, 2020-06-09</name>
    <trkseg>
      <trkpt lat="51.228775034356" lon="4.44892644182">
        <ele>14.6</ele>
        <time>2020-06-09T19:42:23Z</time>
      </trkpt>
      <trkpt lat="51.229053564893" lon="4.448554872193">
        <ele>13</ele>
        <time>2020-06-09T19:43:33Z</time>
      </trkpt>
      <trkpt lat="51.229423541959" lon="4.44896918951">
        <ele>13.8</ele>
        <time>2020-06-09T19:44:10Z</time>
      </trkpt>
      <trkpt lat="51.229573745607" lon="4.449633203628">
        <ele>15.8</ele>
        <time>2020-06-09T19:44:50Z</time>
      </trkpt>
      <trkpt lat="51.22963552021" lon="4.450350023716">
        <ele>15.6</ele>
        <time>2020-06-09T19:45:34Z</time>
      </trkpt>
      <trkpt lat="51.229762338357" lon="4.450896020682">
        <ele>14.8</ele>
        <time>2020-06-09T19:46:09Z</time>
      </trkpt>
      <trkpt lat="51.229872225066" lon="4.450875568846">
        <ele>14.2</ele>
        <time>2020-06-09T19:46:23Z</time>
      </trkpt>
      <trkpt lat="51.230318896517" lon="4.450677085454">
        <ele>12.6</ele>
        <time>2020-06-09T19:47:07Z</time>
      </trkpt>
      <trkpt lat="51.230551158966" lon="4.45101856406">
        <ele>9.6</ele>
        <time>2020-06-09T19:48:11Z</time>
      </trkpt>
      <trkpt lat="51.230561217246" lon="4.451062904311">
        <ele>9.4</ele>
        <time>2020-06-09T19:48:14Z</time>
      </trkpt>
      <trkpt lat="51.230723909925" lon="4.451750052473">
        <ele>13.4</ele>
        <time>2020-06-09T19:48:54Z</time>
      </trkpt>
      <trkpt lat="51.230832120254" lon="4.452471063511">
        <ele>14</ele>
        <time>2020-06-09T19:49:38Z</time>
      </trkpt>
      <trkpt lat="51.230950137406" lon="4.453184698477">
        <ele>6.4</ele>
        <time>2020-06-09T19:50:22Z</time>
      </trkpt>
      <trkpt lat="51.231019790995" lon="4.453920042564">
        <ele>11</ele>
        <time>2020-06-09T19:51:03Z</time>
      </trkpt>
      <trkpt lat="51.231168904996" lon="4.454602161586">
        <ele>15</ele>
        <time>2020-06-09T19:51:43Z</time>
      </trkpt>
      <trkpt lat="51.231308128355" lon="4.455292746327">
        <ele>11.8</ele>
        <time>2020-06-09T19:52:25Z</time>
      </trkpt>
      <trkpt lat="51.231377111392" lon="4.455991880606">
        <ele>7.6</ele>
        <time>2020-06-09T19:53:04Z</time>
      </trkpt>
      <trkpt lat="51.231469060835" lon="4.456169409248">
        <ele>7.6</ele>
        <time>2020-06-09T19:53:19Z</time>
      </trkpt>
      <trkpt lat="51.231452129397" lon="4.456249372574">
        <ele>8.2</ele>
        <time>2020-06-09T19:53:22Z</time>
      </trkpt>
      <trkpt lat="51.231370489691" lon="4.456426901216">
        <ele>8</ele>
        <time>2020-06-09T19:53:33Z</time>
      </trkpt>
      <trkpt lat="51.231178628" lon="4.456484652507">
        <ele>3.2</ele>
        <time>2020-06-09T19:53:54Z</time>
      </trkpt>
      <trkpt lat="51.231138478699" lon="4.456515330261">
        <ele>3.4</ele>
        <time>2020-06-09T19:53:58Z</time>
      </trkpt>
      <trkpt lat="51.230924488792" lon="4.456390272313">
        <ele>8.8</ele>
        <time>2020-06-09T19:54:18Z</time>
      </trkpt>
      <trkpt lat="51.230895152142" lon="4.456305531304">
        <ele>12</ele>
        <time>2020-06-09T19:54:22Z</time>
      </trkpt>
      <trkpt lat="51.230864055293" lon="4.456261777786">
        <ele>14</ele>
        <time>2020-06-09T19:54:25Z</time>
      </trkpt>
      <trkpt lat="51.230797335369" lon="4.456275859378">
        <ele>15.4</ele>
        <time>2020-06-09T19:54:54Z</time>
      </trkpt>
      <trkpt lat="51.230405146268" lon="4.456566627489">
        <ele>16.6</ele>
        <time>2020-06-09T19:55:40Z</time>
      </trkpt>
      <trkpt lat="51.230307916228" lon="4.456725715951">
        <ele>10</ele>
        <time>2020-06-09T19:55:58Z</time>
      </trkpt>
      <trkpt lat="51.22986350789" lon="4.456882625119">
        <ele>4.2</ele>
        <time>2020-06-09T19:56:35Z</time>
      </trkpt>
      <trkpt lat="51.22982243658" lon="4.457485283729">
        <ele>5.4</ele>
        <time>2020-06-09T19:57:15Z</time>
      </trkpt>
      <trkpt lat="51.226317377457" lon="4.459957441315">
        <ele>6</ele>
        <time>2020-06-09T20:30:59Z</time>
      </trkpt>
      <trkpt lat="51.226068854122" lon="4.459797347025">
        <ele>5</ele>
        <time>2020-06-09T20:31:19Z</time>
      </trkpt>
      <trkpt lat="51.225954860282" lon="4.459087567733">
        <ele>10.6</ele>
        <time>2020-06-09T20:31:56Z</time>
      </trkpt>
      <trkpt lat="51.225920829768" lon="4.459013890832">
        <ele>11.8</ele>
        <time>2020-06-09T20:32:06Z</time>
      </trkpt>
      <trkpt lat="51.225872717662" lon="4.458965694907">
        <ele>12.6</ele>
        <time>2020-06-09T20:32:11Z</time>
      </trkpt>
      <trkpt lat="51.225625451612" lon="4.458756817959">
        <ele>13.6</ele>
        <time>2020-06-09T20:32:33Z</time>
      </trkpt>
      <trkpt lat="51.225475499421" lon="4.458603093913">
        <ele>16.2</ele>
        <time>2020-06-09T20:33:03Z</time>
      </trkpt>
      <trkpt lat="51.225496454171" lon="4.458523549682">
        <ele>16.2</ele>
        <time>2020-06-09T20:33:08Z</time>
      </trkpt>
      <trkpt lat="51.225515983998" lon="4.458444424546">
        <ele>15.6</ele>
        <time>2020-06-09T20:33:14Z</time>
      </trkpt>
      <trkpt lat="51.225511373953" lon="4.458079895715">
        <ele>15</ele>
        <time>2020-06-09T20:33:53Z</time>
      </trkpt>
      <trkpt lat="51.225542806078" lon="4.45802415608">
        <ele>14.8</ele>
        <time>2020-06-09T20:34:05Z</time>
      </trkpt>
      <trkpt lat="51.225619249006" lon="4.457778147315">
        <ele>14</ele>
        <time>2020-06-09T20:34:23Z</time>
      </trkpt>
      <trkpt lat="51.225888224177" lon="4.457196191998">
        <ele>11.4</ele>
        <time>2020-06-09T20:34:54Z</time>
      </trkpt>
      <trkpt lat="51.225944634364" lon="4.457141206734">
        <ele>10.4</ele>
        <time>2020-06-09T20:35:02Z</time>
      </trkpt>
      <trkpt lat="51.226374206739" lon="4.456921600954">
        <ele>6.2</ele>
        <time>2020-06-09T20:35:41Z</time>
      </trkpt>
      <trkpt lat="51.226428269994" lon="4.456896706711">
        <ele>5.8</ele>
        <time>2020-06-09T20:35:46Z</time>
      </trkpt>
      <trkpt lat="51.226616611287" lon="4.456853623745">
        <ele>5.2</ele>
        <time>2020-06-09T20:36:03Z</time>
      </trkpt>
      <trkpt lat="51.226730772765" lon="4.457383359825">
        <ele>2.2</ele>
        <time>2020-06-09T20:36:28Z</time>
      </trkpt>
      <trkpt lat="51.226988097095" lon="4.45787495826">
        <ele>7.4</ele>
        <time>2020-06-09T20:37:19Z</time>
      </trkpt>
      <trkpt lat="51.227013578071" lon="4.457909491688">
        <ele>12.2</ele>
        <time>2020-06-09T20:37:22Z</time>
      </trkpt>
      <trkpt lat="51.22707736433" lon="4.457925417298">
        <ele>16.6</ele>
        <time>2020-06-09T20:37:30Z</time>
      </trkpt>
      <trkpt lat="51.227448766319" lon="4.457842855583">
        <ele>26.2</ele>
        <time>2020-06-09T20:38:10Z</time>
      </trkpt>
      <trkpt lat="51.227684549166" lon="4.457654681928">
        <ele>22</ele>
        <time>2020-06-09T20:38:36Z</time>
      </trkpt>
      <trkpt lat="51.22811504355" lon="4.457436836347">
        <ele>18.6</ele>
        <time>2020-06-09T20:39:13Z</time>
      </trkpt>
      <trkpt lat="51.228234401806" lon="4.457265929406">
        <ele>13.8</ele>
        <time>2020-06-09T20:39:27Z</time>
      </trkpt>
      <trkpt lat="51.228403716186" lon="4.457025452695">
        <ele>6.2</ele>
        <time>2020-06-09T20:40:09Z</time>
      </trkpt>
      <trkpt lat="51.22885767989" lon="4.457112708274">
        <ele>17</ele>
        <time>2020-06-09T20:40:47Z</time>
      </trkpt>
      <trkpt lat="51.229299489839" lon="4.45697222763">
        <ele>16.4</ele>
        <time>2020-06-09T20:41:26Z</time>
      </trkpt>
      <trkpt lat="51.229376100405" lon="4.456899640376">
        <ele>15</ele>
        <time>2020-06-09T20:41:37Z</time>
      </trkpt>
      <trkpt lat="51.229633340916" lon="4.45688589406">
        <ele>18.6</ele>
        <time>2020-06-09T20:42:10Z</time>
      </trkpt>
      <trkpt lat="51.229648595974" lon="4.456784808346">
        <ele>16.2</ele>
        <time>2020-06-09T20:42:20Z</time>
      </trkpt>
      <trkpt lat="51.230073558304" lon="4.456584732393">
        <ele>4.8</ele>
        <time>2020-06-09T20:43:02Z</time>
      </trkpt>
      <trkpt lat="51.23049047401" lon="4.456313494109">
        <ele>8.8</ele>
        <time>2020-06-09T20:43:50Z</time>
      </trkpt>
      <trkpt lat="51.230529366026" lon="4.456323384751">
        <ele>10.8</ele>
        <time>2020-06-09T20:44:01Z</time>
      </trkpt>
      <trkpt lat="51.230686275194" lon="4.456466882879">
        <ele>9.6</ele>
        <time>2020-06-09T20:44:30Z</time>
      </trkpt>
      <trkpt lat="51.230666242453" lon="4.45647518096">
        <ele>8.2</ele>
        <time>2020-06-09T20:44:32Z</time>
      </trkpt>
      <trkpt lat="51.230639504192" lon="4.456505691076">
        <ele>6.6</ele>
        <time>2020-06-09T20:44:47Z</time>
      </trkpt>
      <trkpt lat="51.230966230654" lon="4.456231770584">
        <ele>9.4</ele>
        <time>2020-06-09T20:45:13Z</time>
      </trkpt>
      <trkpt lat="51.231043176496" lon="4.456190280179">
        <ele>10.6</ele>
        <time>2020-06-09T20:45:26Z</time>
      </trkpt>
      <trkpt lat="51.231160858372" lon="4.456280301785">
        <ele>11</ele>
        <time>2020-06-09T20:45:36Z</time>
      </trkpt>
      <trkpt lat="51.231266051217" lon="4.457006425782">
        <ele>11.4</ele>
        <time>2020-06-09T20:46:02Z</time>
      </trkpt>
      <trkpt lat="51.231256747308" lon="4.457438512727">
        <ele>14.6</ele>
        <time>2020-06-09T20:46:21Z</time>
      </trkpt>
      <trkpt lat="51.231226237192" lon="4.45753716769">
        <ele>13</ele>
        <time>2020-06-09T20:46:27Z</time>
      </trkpt>
      <trkpt lat="51.231088354937" lon="4.457645378019">
        <ele>7.6</ele>
        <time>2020-06-09T20:46:37Z</time>
      </trkpt>
      <trkpt lat="51.230637743993" lon="4.457677648334">
        <ele>6.6</ele>
        <time>2020-06-09T20:47:18Z</time>
      </trkpt>
      <trkpt lat="51.230587117317" lon="4.45770983483">
        <ele>4.2</ele>
        <time>2020-06-09T20:47:24Z</time>
      </trkpt>
      <trkpt lat="51.230491396019" lon="4.457756354375">
        <ele>1</ele>
        <time>2020-06-09T20:47:37Z</time>
      </trkpt>
      <trkpt lat="51.230102727316" lon="4.457908234403">
        <ele>6.6</ele>
        <time>2020-06-09T20:48:12Z</time>
      </trkpt>
      <trkpt lat="51.229772731913" lon="4.457955173043">
        <ele>6.2</ele>
        <time>2020-06-09T20:49:21Z</time>
      </trkpt>
      <trkpt lat="51.229347015212" lon="4.458048715047">
        <ele>2.4</ele>
        <time>2020-06-09T20:50:04Z</time>
      </trkpt>
      <trkpt lat="51.229268812085" lon="4.458089199624">
        <ele>5.6</ele>
        <time>2020-06-09T20:50:20Z</time>
      </trkpt>
      <trkpt lat="51.229267470981" lon="4.458084924855">
        <ele>7.6</ele>
        <time>2020-06-09T20:50:50Z</time>
      </trkpt>
      <trkpt lat="51.229489088417" lon="4.457943773659">
        <ele>2</ele>
        <time>2020-06-09T20:51:24Z</time>
      </trkpt>
      <trkpt lat="51.229671478561" lon="4.457816704055">
        <ele>1.4</ele>
        <time>2020-06-09T20:52:00Z</time>
      </trkpt>
    </trkseg>
  </trk>
</gpx>